sensor_id;sensor_type;location;lat;lon;timestamp;pressure;altitude;pressure_sealevel;temperature;humidity
74973;BME280;63529;56.320;43.990;2022-12-18T00:00:46;99784.69;;;-2.87;77.14
74973;BME280;63529;56.320;43.990;2022-12-18T00:03:14;99781.91;;;-2.86;76.79
74973;BME280;63529;56.320;43.990;2022-12-18T00:05:50;99779.13;;;-2.84;76.90
74973;BME280;63529;56.320;43.990;2022-12-18T00:08:17;99766.06;;;-2.84;77.11
74973;BME280;63529;56.320;43.990;2022-12-18T00:10:43;99745.34;;;-2.86;77.05
74973;BME280;63529;56.320;43.990;2022-12-18T00:13:10;99748.78;;;-2.85;76.95
74973;BME280;63529;56.320;43.990;2022-12-18T00:15:37;99736.53;;;-2.85;76.95
74973;BME280;63529;56.320;43.990;2022-12-18T00:18:03;99721.03;;;-2.86;77.04
74973;BME280;63529;56.320;43.990;2022-12-18T00:20:29;99720.84;;;-2.85;76.93
74973;BME280;63529;56.320;43.990;2022-12-18T00:22:55;99713.03;;;-2.85;77.17
74973;BME280;63529;56.320;43.990;2022-12-18T00:25:22;99704.00;;;-2.82;76.94
74973;BME280;63529;56.320;43.990;2022-12-18T00:27:48;99696.19;;;-2.82;76.94
74973;BME280;63529;56.320;43.990;2022-12-18T00:30:14;99693.56;;;-2.82;76.73
74973;BME280;63529;56.320;43.990;2022-12-18T00:32:40;99698.59;;;-2.81;76.75
74973;BME280;63529;56.320;43.990;2022-12-18T00:35:07;99673.47;;;-2.82;76.73
74973;BME280;63529;56.320;43.990;2022-12-18T00:37:33;99655.19;;;-2.82;76.61
74973;BME280;63529;56.320;43.990;2022-12-18T00:39:59;99637.09;;;-2.83;76.70
74973;BME280;63529;56.320;43.990;2022-12-18T00:42:30;99637.91;;;-2.83;76.60
74973;BME280;63529;56.320;43.990;2022-12-18T00:45:14;99636.09;;;-2.82;76.90
74973;BME280;63529;56.320;43.990;2022-12-18T00:47:40;99624.66;;;-2.81;76.85
74973;BME280;63529;56.320;43.990;2022-12-18T00:50:07;99615.88;;;-2.80;76.62
74973;BME280;63529;56.320;43.990;2022-12-18T00:52:33;99609.81;;;-2.81;76.70
74973;BME280;63529;56.320;43.990;2022-12-18T00:54:59;99610.28;;;-2.77;76.55
74973;BME280;63529;56.320;43.990;2022-12-18T00:57:24;99581.53;;;-2.77;76.70
74973;BME280;63529;56.320;43.990;2022-12-18T00:59:50;99577.94;;;-2.76;76.70
74973;BME280;63529;56.320;43.990;2022-12-18T01:02:17;99571.09;;;-2.77;76.56
74973;BME280;63529;56.320;43.990;2022-12-18T01:04:43;99557.22;;;-2.78;76.44
74973;BME280;63529;56.320;43.990;2022-12-18T01:07:09;99559.66;;;-2.76;76.58
74973;BME280;63529;56.320;43.990;2022-12-18T01:09:35;99548.78;;;-2.80;76.51
74973;BME280;63529;56.320;43.990;2022-12-18T01:12:01;99531.91;;;-2.77;76.52
74973;BME280;63529;56.320;43.990;2022-12-18T01:14:27;99527.88;;;-2.80;76.38
74973;BME280;63529;56.320;43.990;2022-12-18T01:16:52;99518.25;;;-2.79;76.45
74973;BME280;63529;56.320;43.990;2022-12-18T01:19:18;99504.38;;;-2.80;76.51
74973;BME280;63529;56.320;43.990;2022-12-18T01:21:46;99513.38;;;-2.82;76.57
74973;BME280;63529;56.320;43.990;2022-12-18T01:24:12;99507.16;;;-2.81;76.48
74973;BME280;63529;56.320;43.990;2022-12-18T01:26:38;99502.94;;;-2.82;76.71
74973;BME280;63529;56.320;43.990;2022-12-18T01:29:04;99491.66;;;-2.83;76.75
74973;BME280;63529;56.320;43.990;2022-12-18T01:31:32;99495.09;;;-2.82;76.87
74973;BME280;63529;56.320;43.990;2022-12-18T01:34:01;99499.16;;;-2.80;76.76
74973;BME280;63529;56.320;43.990;2022-12-18T01:36:30;99507.00;;;-2.80;76.89
74973;BME280;63529;56.320;43.990;2022-12-18T01:39:00;99510.41;;;-2.79;76.90
74973;BME280;63529;56.320;43.990;2022-12-18T01:41:28;99514.63;;;-2.78;76.74
74973;BME280;63529;56.320;43.990;2022-12-18T01:47:46;99495.97;;;-2.75;76.87
74973;BME280;63529;56.320;43.990;2022-12-18T01:53:05;99461.03;;;-2.74;76.97
74973;BME280;63529;56.320;43.990;2022-12-18T01:55:37;99460.22;;;-2.75;76.63
74973;BME280;63529;56.320;43.990;2022-12-18T01:58:05;99426.25;;;-2.75;76.63
74973;BME280;63529;56.320;43.990;2022-12-18T02:00:31;99414.19;;;-2.76;76.96
74973;BME280;63529;56.320;43.990;2022-12-18T02:02:57;99410.78;;;-2.76;76.84
74973;BME280;63529;56.320;43.990;2022-12-18T02:05:35;99392.50;;;-2.76;76.96
74973;BME280;63529;56.320;43.990;2022-12-18T02:08:27;99380.25;;;-2.76;77.04
74973;BME280;63529;56.320;43.990;2022-12-18T02:27:30;99378.28;;;-2.74;77.64
74973;BME280;63529;56.320;43.990;2022-12-18T02:29:59;99379.25;;;-2.75;77.97
74973;BME280;63529;56.320;43.990;2022-12-18T02:32:34;99388.53;;;-2.72;77.91
74973;BME280;63529;56.320;43.990;2022-12-18T02:35:04;99366.63;;;-2.71;77.72
74973;BME280;63529;56.320;43.990;2022-12-18T02:37:33;99341.94;;;-2.68;77.92
74973;BME280;63529;56.320;43.990;2022-12-18T02:40:03;99310.59;;;-2.68;77.98
74973;BME280;63529;56.320;43.990;2022-12-18T02:42:31;99300.94;;;-2.68;77.72
74973;BME280;63529;56.320;43.990;2022-12-18T02:44:59;99281.69;;;-2.67;77.93
74973;BME280;63529;56.320;43.990;2022-12-18T02:47:30;99257.19;;;-2.66;77.87
74973;BME280;63529;56.320;43.990;2022-12-18T02:57:55;99197.72;;;-2.64;77.49
74973;BME280;63529;56.320;43.990;2022-12-18T03:03:31;99177.22;;;-2.67;77.76
74973;BME280;63529;56.320;43.990;2022-12-18T03:06:30;99159.53;;;-2.65;77.70
74973;BME280;63529;56.320;43.990;2022-12-18T03:09:06;99119.75;;;-2.67;77.92
74973;BME280;63529;56.320;43.990;2022-12-18T03:11:38;99134.41;;;-2.66;78.03
74973;BME280;63529;56.320;43.990;2022-12-18T03:14:27;99108.09;;;-2.64;78.20
74973;BME280;63529;56.320;43.990;2022-12-18T03:16:58;99088.00;;;-2.64;78.31
74973;BME280;63529;56.320;43.990;2022-12-18T03:19:27;99071.53;;;-2.64;78.56
74973;BME280;63529;56.320;43.990;2022-12-18T03:22:00;99077.00;;;-2.59;78.49
74973;BME280;63529;56.320;43.990;2022-12-18T03:24:33;99084.81;;;-2.59;78.83
74973;BME280;63529;56.320;43.990;2022-12-18T03:27:02;99073.97;;;-2.56;78.76
74973;BME280;63529;56.320;43.990;2022-12-18T03:29:35;99083.41;;;-2.55;78.92
74973;BME280;63529;56.320;43.990;2022-12-18T03:32:15;99097.09;;;-2.53;78.80
74973;BME280;63529;56.320;43.990;2022-12-18T03:34:42;99103.72;;;-2.51;78.77
74973;BME280;63529;56.320;43.990;2022-12-18T03:37:12;99118.19;;;-2.48;78.68
74973;BME280;63529;56.320;43.990;2022-12-18T03:39:40;99105.97;;;-2.48;78.91
74973;BME280;63529;56.320;43.990;2022-12-18T03:42:12;99103.16;;;-2.46;78.88
74973;BME280;63529;56.320;43.990;2022-12-18T03:44:57;99093.31;;;-2.44;78.91
74973;BME280;63529;56.320;43.990;2022-12-18T03:50:16;99090.72;;;-2.37;78.78
74973;BME280;63529;56.320;43.990;2022-12-18T03:52:51;99076.66;;;-2.36;78.93
74973;BME280;63529;56.320;43.990;2022-12-18T03:55:21;99076.44;;;-2.35;78.98
74973;BME280;63529;56.320;43.990;2022-12-18T03:57:53;99054.56;;;-2.34;79.05
74973;BME280;63529;56.320;43.990;2022-12-18T04:00:20;99050.53;;;-2.30;79.06
74973;BME280;63529;56.320;43.990;2022-12-18T04:02:56;99048.34;;;-2.26;78.99
74973;BME280;63529;56.320;43.990;2022-12-18T04:05:32;99039.50;;;-2.25;78.95
74973;BME280;63529;56.320;43.990;2022-12-18T04:08:00;99033.84;;;-2.22;79.28
74973;BME280;63529;56.320;43.990;2022-12-18T04:10:27;99031.06;;;-2.21;79.05
74973;BME280;63529;56.320;43.990;2022-12-18T04:12:56;99039.28;;;-2.17;79.18
74973;BME280;63529;56.320;43.990;2022-12-18T04:15:23;99044.31;;;-2.15;79.11
74973;BME280;63529;56.320;43.990;2022-12-18T04:17:50;99035.28;;;-2.13;79.23
74973;BME280;63529;56.320;43.990;2022-12-18T04:20:19;99027.44;;;-2.13;79.24
74973;BME280;63529;56.320;43.990;2022-12-18T04:22:45;99027.03;;;-2.10;79.11
74973;BME280;63529;56.320;43.990;2022-12-18T04:25:11;99019.19;;;-2.10;79.07
74973;BME280;63529;56.320;43.990;2022-12-18T04:27:42;99015.19;;;-2.06;79.06
74973;BME280;63529;56.320;43.990;2022-12-18T04:30:09;99021.41;;;-2.07;78.97
74973;BME280;63529;56.320;43.990;2022-12-18T04:32:35;99024.03;;;-2.07;78.94
74973;BME280;63529;56.320;43.990;2022-12-18T04:35:02;99015.78;;;-2.04;78.91
74973;BME280;63529;56.320;43.990;2022-12-18T04:37:31;99008.56;;;-2.02;78.90
74973;BME280;63529;56.320;43.990;2022-12-18T04:39:57;98993.84;;;-2.03;78.93
74973;BME280;63529;56.320;43.990;2022-12-18T04:42:31;98983.81;;;-1.99;78.71
74973;BME280;63529;56.320;43.990;2022-12-18T04:44:57;98978.78;;;-2.01;78.75
74973;BME280;63529;56.320;43.990;2022-12-18T04:47:23;98980.59;;;-2.01;79.08
74973;BME280;63529;56.320;43.990;2022-12-18T04:49:49;98992.44;;;-1.99;78.76
74973;BME280;63529;56.320;43.990;2022-12-18T04:52:15;98979.38;;;-1.99;78.59
74973;BME280;63529;56.320;43.990;2022-12-18T04:54:40;98975.53;;;-1.96;78.62
74973;BME280;63529;56.320;43.990;2022-12-18T04:57:06;98986.84;;;-1.96;78.62
74973;BME280;63529;56.320;43.990;2022-12-18T04:59:32;98979.59;;;-1.94;78.65
74973;BME280;63529;56.320;43.990;2022-12-18T05:01:58;98967.09;;;-1.92;78.76
74973;BME280;63529;56.320;43.990;2022-12-18T05:04:24;98965.50;;;-1.93;78.61
74973;BME280;63529;56.320;43.990;2022-12-18T05:06:50;98961.88;;;-1.92;78.63
74973;BME280;63529;56.320;43.990;2022-12-18T05:09:15;98961.50;;;-1.88;78.57
74973;BME280;63529;56.320;43.990;2022-12-18T05:11:41;98956.25;;;-1.88;78.55
74973;BME280;63529;56.320;43.990;2022-12-18T05:14:07;98950.59;;;-1.85;78.52
74973;BME280;63529;56.320;43.990;2022-12-18T05:16:33;98950.59;;;-1.85;78.59
74973;BME280;63529;56.320;43.990;2022-12-18T05:18:59;98951.19;;;-1.83;78.48
74973;BME280;63529;56.320;43.990;2022-12-18T05:21:25;98943.34;;;-1.83;78.59
74973;BME280;63529;56.320;43.990;2022-12-18T05:23:51;98953.00;;;-1.84;78.34
74973;BME280;63529;56.320;43.990;2022-12-18T05:26:18;98947.38;;;-1.81;78.22
74973;BME280;63529;56.320;43.990;2022-12-18T05:28:44;98946.59;;;-1.81;78.41
74973;BME280;63529;56.320;43.990;2022-12-18T05:31:11;98936.94;;;-1.81;78.21
74973;BME280;63529;56.320;43.990;2022-12-18T05:33:37;98936.72;;;-1.79;78.21
74973;BME280;63529;56.320;43.990;2022-12-18T05:36:05;98914.78;;;-1.78;78.21
74973;BME280;63529;56.320;43.990;2022-12-18T05:38:33;98905.91;;;-1.77;78.43
74973;BME280;63529;56.320;43.990;2022-12-18T05:41:00;98897.91;;;-1.76;78.51
74973;BME280;63529;56.320;43.990;2022-12-18T05:43:26;98900.88;;;-1.72;78.43
74973;BME280;63529;56.320;43.990;2022-12-18T05:45:52;98899.88;;;-1.71;78.26
74973;BME280;63529;56.320;43.990;2022-12-18T05:48:19;98903.09;;;-1.69;78.19
74973;BME280;63529;56.320;43.990;2022-12-18T05:50:46;98910.34;;;-1.71;78.11
74973;BME280;63529;56.320;43.990;2022-12-18T05:53:14;98909.94;;;-1.68;78.12
74973;BME280;63529;56.320;43.990;2022-12-18T05:55:41;98898.47;;;-1.67;78.04
74973;BME280;63529;56.320;43.990;2022-12-18T05:58:09;98903.28;;;-1.64;78.16
74973;BME280;63529;56.320;43.990;2022-12-18T06:00:37;98895.03;;;-1.61;78.18
74973;BME280;63529;56.320;43.990;2022-12-18T06:03:10;98893.22;;;-1.60;78.26
74973;BME280;63529;56.320;43.990;2022-12-18T06:05:42;98901.88;;;-1.60;78.02
74973;BME280;63529;56.320;43.990;2022-12-18T06:08:09;98909.50;;;-1.58;77.90
74973;BME280;63529;56.320;43.990;2022-12-18T06:10:35;98894.59;;;-1.58;77.94
74973;BME280;63529;56.320;43.990;2022-12-18T06:13:01;98886.56;;;-1.56;77.83
74973;BME280;63529;56.320;43.990;2022-12-18T06:15:27;98884.31;;;-1.53;77.84
74973;BME280;63529;56.320;43.990;2022-12-18T06:17:52;98886.53;;;-1.50;77.83
74973;BME280;63529;56.320;43.990;2022-12-18T06:20:18;98878.47;;;-1.48;78.05
74973;BME280;63529;56.320;43.990;2022-12-18T06:22:44;98880.09;;;-1.47;77.99
74973;BME280;63529;56.320;43.990;2022-12-18T06:25:10;98869.41;;;-1.46;78.01
74973;BME280;63529;56.320;43.990;2022-12-18T06:27:36;98879.66;;;-1.44;77.85
74973;BME280;63529;56.320;43.990;2022-12-18T06:30:03;98887.31;;;-1.43;77.59
74973;BME280;63529;56.320;43.990;2022-12-18T06:32:30;98875.03;;;-1.42;77.65
74973;BME280;63529;56.320;43.990;2022-12-18T06:34:56;98871.19;;;-1.40;77.69
74973;BME280;63529;56.320;43.990;2022-12-18T06:37:22;98865.16;;;-1.40;77.62
74973;BME280;63529;56.320;43.990;2022-12-18T06:39:52;98855.09;;;-1.37;77.63
74973;BME280;63529;56.320;43.990;2022-12-18T06:42:18;98852.25;;;-1.35;77.54
74973;BME280;63529;56.320;43.990;2022-12-18T06:44:44;98854.66;;;-1.33;77.37
74973;BME280;63529;56.320;43.990;2022-12-18T06:47:10;98852.84;;;-1.33;77.46
74973;BME280;63529;56.320;43.990;2022-12-18T06:49:35;98855.25;;;-1.31;77.24
74973;BME280;63529;56.320;43.990;2022-12-18T06:52:01;98841.34;;;-1.32;77.13
74973;BME280;63529;56.320;43.990;2022-12-18T06:54:27;98838.53;;;-1.30;77.03
74973;BME280;63529;56.320;43.990;2022-12-18T06:56:53;98833.69;;;-1.27;77.31
74973;BME280;63529;56.320;43.990;2022-12-18T06:59:19;98835.06;;;-1.24;77.21
74973;BME280;63529;56.320;43.990;2022-12-18T07:01:45;98814.94;;;-1.24;77.23
74973;BME280;63529;56.320;43.990;2022-12-18T07:04:11;98819.97;;;-1.22;77.09
74973;BME280;63529;56.320;43.990;2022-12-18T07:06:37;98826.81;;;-1.21;77.04
74973;BME280;63529;56.320;43.990;2022-12-18T07:09:03;98809.06;;;-1.19;76.99
74973;BME280;63529;56.320;43.990;2022-12-18T07:11:28;98808.03;;;-1.18;76.88
74973;BME280;63529;56.320;43.990;2022-12-18T07:13:54;98807.47;;;-1.20;76.72
74973;BME280;63529;56.320;43.990;2022-12-18T07:16:21;98808.47;;;-1.21;76.54
74973;BME280;63529;56.320;43.990;2022-12-18T07:18:47;98806.44;;;-1.19;76.75
74973;BME280;63529;56.320;43.990;2022-12-18T07:21:15;98805.44;;;-1.18;76.83
74973;BME280;63529;56.320;43.990;2022-12-18T07:23:41;98800.19;;;-1.18;76.64
74973;BME280;63529;56.320;43.990;2022-12-18T07:26:12;98794.94;;;-1.18;76.47
74973;BME280;63529;56.320;43.990;2022-12-18T07:28:40;98790.75;;;-1.19;76.53
74973;BME280;63529;56.320;43.990;2022-12-18T07:31:11;98795.16;;;-1.20;76.70
74973;BME280;63529;56.320;43.990;2022-12-18T07:33:40;98784.13;;;-1.22;76.50
74973;BME280;63529;56.320;43.990;2022-12-18T07:36:07;98784.34;;;-1.23;76.59
74973;BME280;63529;56.320;43.990;2022-12-18T07:38:34;98787.75;;;-1.23;76.50
74973;BME280;63529;56.320;43.990;2022-12-18T07:41:05;98789.75;;;-1.25;76.78
74973;BME280;63529;56.320;43.990;2022-12-18T07:43:32;98784.53;;;-1.25;76.69
74973;BME280;63529;56.320;43.990;2022-12-18T07:45:58;98781.91;;;-1.25;76.57
74973;BME280;63529;56.320;43.990;2022-12-18T07:48:24;98777.69;;;-1.26;76.53
74973;BME280;63529;56.320;43.990;2022-12-18T07:50:50;98775.88;;;-1.25;76.38
74973;BME280;63529;56.320;43.990;2022-12-18T07:53:16;98765.63;;;-1.27;76.60
74973;BME280;63529;56.320;43.990;2022-12-18T07:55:42;98758.56;;;-1.26;76.74
74973;BME280;63529;56.320;43.990;2022-12-18T07:58:08;98761.19;;;-1.26;76.54
74973;BME280;63529;56.320;43.990;2022-12-18T08:00:34;98762.59;;;-1.24;76.66
74973;BME280;63529;56.320;43.990;2022-12-18T08:03:01;98752.47;;;-1.20;76.86
74973;BME280;63529;56.320;43.990;2022-12-18T08:05:27;98758.31;;;-1.18;76.83
74973;BME280;63529;56.320;43.990;2022-12-18T08:07:53;98751.63;;;-1.14;76.48
74973;BME280;63529;56.320;43.990;2022-12-18T08:10:19;98752.03;;;-1.11;76.54
74973;BME280;63529;56.320;43.990;2022-12-18T08:12:49;98761.03;;;-1.06;76.51
74973;BME280;63529;56.320;43.990;2022-12-18T08:15:14;98749.34;;;-1.04;76.49
74973;BME280;63529;56.320;43.990;2022-12-18T08:17:40;98751.31;;;-0.99;76.21
74973;BME280;63529;56.320;43.990;2022-12-18T08:20:07;98750.53;;;-1.00;75.71
74973;BME280;63529;56.320;43.990;2022-12-18T08:22:34;98747.69;;;-0.98;75.95
74973;BME280;63529;56.320;43.990;2022-12-18T08:25:01;98747.09;;;-1.00;75.75
74973;BME280;63529;56.320;43.990;2022-12-18T08:27:29;98746.09;;;-0.99;75.80
74973;BME280;63529;56.320;43.990;2022-12-18T08:29:56;98760.19;;;-1.00;75.75
74973;BME280;63529;56.320;43.990;2022-12-18T08:32:22;98763.03;;;-1.02;75.77
74973;BME280;63529;56.320;43.990;2022-12-18T08:34:48;98757.34;;;-0.99;76.05
74973;BME280;63529;56.320;43.990;2022-12-18T08:37:14;98761.78;;;-0.99;75.83
74973;BME280;63529;56.320;43.990;2022-12-18T08:39:39;98762.81;;;-1.00;75.72
74973;BME280;63529;56.320;43.990;2022-12-18T08:42:05;98772.50;;;-1.01;75.62
74973;BME280;63529;56.320;43.990;2022-12-18T08:44:50;98769.88;;;-1.01;75.63
74973;BME280;63529;56.320;43.990;2022-12-18T08:47:15;98778.31;;;-0.99;75.57
74973;BME280;63529;56.320;43.990;2022-12-18T08:49:42;98776.72;;;-1.00;75.35
74973;BME280;63529;56.320;43.990;2022-12-18T08:52:08;98779.94;;;-0.98;75.30
74973;BME280;63529;56.320;43.990;2022-12-18T08:54:34;98775.50;;;-0.97;75.44
74973;BME280;63529;56.320;43.990;2022-12-18T08:57:00;98772.66;;;-0.96;75.66
74973;BME280;63529;56.320;43.990;2022-12-18T08:59:27;98774.03;;;-0.93;75.69
74973;BME280;63529;56.320;43.990;2022-12-18T09:01:53;98770.41;;;-0.92;75.72
74973;BME280;63529;56.320;43.990;2022-12-18T09:04:19;98758.72;;;-0.90;75.41
74973;BME280;63529;56.320;43.990;2022-12-18T09:06:46;98760.31;;;-0.89;75.68
74973;BME280;63529;56.320;43.990;2022-12-18T09:09:12;98767.16;;;-0.88;75.47
74973;BME280;63529;56.320;43.990;2022-12-18T09:11:38;98769.34;;;-0.85;75.59
74973;BME280;63529;56.320;43.990;2022-12-18T09:14:04;98768.53;;;-0.85;75.61
74973;BME280;63529;56.320;43.990;2022-12-18T09:16:31;98771.75;;;-0.83;75.03
74973;BME280;63529;56.320;43.990;2022-12-18T09:18:58;98772.56;;;-0.83;75.43
74973;BME280;63529;56.320;43.990;2022-12-18T09:21:30;98772.56;;;-0.83;75.43
74973;BME280;63529;56.320;43.990;2022-12-18T09:23:56;98770.94;;;-0.84;75.35
74973;BME280;63529;56.320;43.990;2022-12-18T09:26:23;98765.72;;;-0.84;75.23
74973;BME280;63529;56.320;43.990;2022-12-18T09:28:50;98766.50;;;-0.83;75.00
74973;BME280;63529;56.320;43.990;2022-12-18T09:31:18;98770.16;;;-0.84;75.30
74973;BME280;63529;56.320;43.990;2022-12-18T09:33:44;98772.78;;;-0.84;75.03
74973;BME280;63529;56.320;43.990;2022-12-18T09:36:14;98771.75;;;-0.83;75.19
74973;BME280;63529;56.320;43.990;2022-12-18T09:38:41;98773.56;;;-0.84;75.29
74973;BME280;63529;56.320;43.990;2022-12-18T09:44:01;98770.09;;;-0.77;75.10
74973;BME280;63529;56.320;43.990;2022-12-18T09:46:31;98770.69;;;-0.75;75.01
74973;BME280;63529;56.320;43.990;2022-12-18T09:49:01;98769.44;;;-0.73;75.41
74973;BME280;63529;56.320;43.990;2022-12-18T09:51:56;98761.97;;;-0.69;75.17
74973;BME280;63529;56.320;43.990;2022-12-18T09:54:33;98762.53;;;-0.67;75.36
74973;BME280;63529;56.320;43.990;2022-12-18T09:57:01;98771.59;;;-0.63;75.22
74973;BME280;63529;56.320;43.990;2022-12-18T09:59:34;98767.72;;;-0.61;75.45
74973;BME280;63529;56.320;43.990;2022-12-18T10:02:14;98769.13;;;-0.58;75.59
74973;BME280;63529;56.320;43.990;2022-12-18T10:04:40;98772.75;;;-0.59;75.51
74973;BME280;63529;56.320;43.990;2022-12-18T10:07:29;98772.53;;;-0.58;75.54
74973;BME280;63529;56.320;43.990;2022-12-18T10:10:17;98767.06;;;-0.56;75.45
74973;BME280;63529;56.320;43.990;2022-12-18T10:13:10;98769.47;;;-0.55;75.47
74973;BME280;63529;56.320;43.990;2022-12-18T10:18:42;98773.91;;;-0.55;75.12
74973;BME280;63529;56.320;43.990;2022-12-18T10:21:18;98779.97;;;-0.55;75.33
74973;BME280;63529;56.320;43.990;2022-12-18T10:23:51;98785.19;;;-0.55;74.94
74973;BME280;63529;56.320;43.990;2022-12-18T10:26:20;98794.09;;;-0.56;75.14
74973;BME280;63529;56.320;43.990;2022-12-18T10:28:46;98802.16;;;-0.57;74.99
74973;BME280;63529;56.320;43.990;2022-12-18T10:31:18;98796.31;;;-0.59;74.87
74973;BME280;63529;56.320;43.990;2022-12-18T10:33:44;98804.00;;;-0.58;75.32
74973;BME280;63529;56.320;43.990;2022-12-18T10:36:10;98807.63;;;-0.59;75.61
74973;BME280;63529;56.320;43.990;2022-12-18T10:38:36;98813.66;;;-0.58;75.27
74973;BME280;63529;56.320;43.990;2022-12-18T10:41:06;98823.13;;;-0.57;75.37
74973;BME280;63529;56.320;43.990;2022-12-18T10:43:37;98818.31;;;-0.60;75.24
74973;BME280;63529;56.320;43.990;2022-12-18T10:51:39;98824.72;;;-0.56;75.37
74973;BME280;63529;56.320;43.990;2022-12-18T10:54:14;98834.63;;;-0.58;75.02
74973;BME280;63529;56.320;43.990;2022-12-18T10:56:41;98840.69;;;-0.58;74.80
74973;BME280;63529;56.320;43.990;2022-12-18T10:59:10;98842.50;;;-0.58;74.64
74973;BME280;63529;56.320;43.990;2022-12-18T11:01:52;98847.13;;;-0.60;74.64
74973;BME280;63529;56.320;43.990;2022-12-18T11:07:04;98836.50;;;-0.65;74.73
74973;BME280;63529;56.320;43.990;2022-12-18T11:09:32;98830.44;;;-0.66;74.18
74973;BME280;63529;56.320;43.990;2022-12-18T11:12:00;98829.28;;;-0.70;74.35
74973;BME280;63529;56.320;43.990;2022-12-18T11:14:28;98838.16;;;-0.71;74.40
74973;BME280;63529;56.320;43.990;2022-12-18T11:19:40;98849.28;;;-0.75;74.51
74973;BME280;63529;56.320;43.990;2022-12-18T11:22:30;98853.13;;;-0.78;74.63
74973;BME280;63529;56.320;43.990;2022-12-18T11:25:22;98854.13;;;-0.79;74.53
74973;BME280;63529;56.320;43.990;2022-12-18T11:27:58;98854.56;;;-0.82;74.64
74973;BME280;63529;56.320;43.990;2022-12-18T11:33:03;98873.13;;;-0.84;74.13
74973;BME280;63529;56.320;43.990;2022-12-18T11:35:33;98882.97;;;-0.86;74.64
74973;BME280;63529;56.320;43.990;2022-12-18T11:38:06;98882.41;;;-0.88;74.37
74973;BME280;63529;56.320;43.990;2022-12-18T11:40:40;98882.63;;;-0.89;74.49
74973;BME280;63529;56.320;43.990;2022-12-18T11:43:13;98883.81;;;-0.92;74.39
74973;BME280;63529;56.320;43.990;2022-12-18T11:45:49;98886.66;;;-0.93;74.35
74973;BME280;63529;56.320;43.990;2022-12-18T11:53:17;98894.97;;;-1.03;74.40
74973;BME280;63529;56.320;43.990;2022-12-18T11:58:45;98912.34;;;-1.08;74.37
74973;BME280;63529;56.320;43.990;2022-12-18T12:01:28;98921.59;;;-1.13;74.17
74973;BME280;63529;56.320;43.990;2022-12-18T12:06:56;98931.09;;;-1.18;74.13
74973;BME280;63529;56.320;43.990;2022-12-18T12:12:32;98932.13;;;-1.26;73.85
74973;BME280;63529;56.320;43.990;2022-12-18T12:18:18;98952.09;;;-1.31;74.05
74973;BME280;63529;56.320;43.990;2022-12-18T12:23:38;98962.56;;;-1.38;74.15
74973;BME280;63529;56.320;43.990;2022-12-18T12:26:18;98971.44;;;-1.39;74.28
74973;BME280;63529;56.320;43.990;2022-12-18T12:28:50;98970.84;;;-1.41;74.28
74973;BME280;63529;56.320;43.990;2022-12-18T12:31:23;98972.88;;;-1.43;74.36
74973;BME280;63529;56.320;43.990;2022-12-18T12:34:13;98987.97;;;-1.45;74.40
74973;BME280;63529;56.320;43.990;2022-12-18T12:39:44;98992.81;;;-1.49;74.10
74973;BME280;63529;56.320;43.990;2022-12-18T12:42:36;99008.69;;;-1.50;74.28
74973;BME280;63529;56.320;43.990;2022-12-18T12:45:34;99012.75;;;-1.54;74.28
74973;BME280;63529;56.320;43.990;2022-12-18T12:48:05;99025.03;;;-1.55;74.22
74973;BME280;63529;56.320;43.990;2022-12-18T12:50:34;99039.13;;;-1.56;74.15
74973;BME280;63529;56.320;43.990;2022-12-18T12:53:05;99051.59;;;-1.58;74.23
74973;BME280;63529;56.320;43.990;2022-12-18T12:55:32;99057.25;;;-1.61;74.16
74973;BME280;63529;56.320;43.990;2022-12-18T13:00:38;99051.41;;;-1.63;73.96
74973;BME280;63529;56.320;43.990;2022-12-18T13:03:18;99052.38;;;-1.64;73.81
74973;BME280;63529;56.320;43.990;2022-12-18T13:06:07;99049.19;;;-1.66;73.79
74973;BME280;63529;56.320;43.990;2022-12-18T13:19:42;99095.69;;;-1.75;73.87
74973;BME280;63529;56.320;43.990;2022-12-18T13:22:45;99103.69;;;-1.76;73.90
74973;BME280;63529;56.320;43.990;2022-12-18T13:25:31;99102.09;;;-1.77;73.77
74973;BME280;63529;56.320;43.990;2022-12-18T13:43:31;99120.22;;;-1.89;73.46
74973;BME280;63529;56.320;43.990;2022-12-18T13:46:05;99122.00;;;-1.89;73.30
74973;BME280;63529;56.320;43.990;2022-12-18T13:48:35;99125.00;;;-1.93;73.33
74973;BME280;63529;56.320;43.990;2022-12-18T13:51:05;99125.22;;;-1.94;73.44
74973;BME280;63529;56.320;43.990;2022-12-18T13:54:02;99141.13;;;-1.96;73.15
74973;BME280;63529;56.320;43.990;2022-12-18T13:56:32;99147.31;;;-1.97;73.35
74973;BME280;63529;56.320;43.990;2022-12-18T13:59:20;99148.13;;;-1.96;73.52
74973;BME280;63529;56.320;43.990;2022-12-18T14:01:56;99150.13;;;-1.98;73.42
74973;BME280;63529;56.320;43.990;2022-12-18T14:09:30;99171.25;;;-2.00;73.21
74973;BME280;63529;56.320;43.990;2022-12-18T14:11:57;99183.53;;;-2.00;73.22
74973;BME280;63529;56.320;43.990;2022-12-18T14:14:44;99182.91;;;-2.02;73.22
74973;BME280;63529;56.320;43.990;2022-12-18T14:17:11;99183.91;;;-2.03;73.24
74973;BME280;63529;56.320;43.990;2022-12-18T14:19:48;99189.34;;;-2.05;73.28
74973;BME280;63529;56.320;43.990;2022-12-18T14:22:21;99195.59;;;-2.06;73.19
74973;BME280;63529;56.320;43.990;2022-12-18T14:28:08;99201.38;;;-2.10;73.22
74973;BME280;63529;56.320;43.990;2022-12-18T14:30:42;99202.38;;;-2.11;73.14
74973;BME280;63529;56.320;43.990;2022-12-18T14:33:14;99223.50;;;-2.13;73.15
74973;BME280;63529;56.320;43.990;2022-12-18T14:35:54;99218.28;;;-2.13;73.09
74973;BME280;63529;56.320;43.990;2022-12-18T14:40:58;99224.88;;;-2.17;72.93
74973;BME280;63529;56.320;43.990;2022-12-18T14:43:25;99226.91;;;-2.19;72.89
74973;BME280;63529;56.320;43.990;2022-12-18T14:45:51;99223.69;;;-2.21;72.79
74973;BME280;63529;56.320;43.990;2022-12-18T14:48:25;99226.47;;;-2.23;72.78
74973;BME280;63529;56.320;43.990;2022-12-18T14:55:57;99238.53;;;-2.28;72.69
74973;BME280;63529;56.320;43.990;2022-12-18T14:58:23;99248.97;;;-2.28;72.71
74973;BME280;63529;56.320;43.990;2022-12-18T15:00:49;99245.72;;;-2.30;72.74
74973;BME280;63529;56.320;43.990;2022-12-18T15:03:18;99247.53;;;-2.31;72.68
74973;BME280;63529;56.320;43.990;2022-12-18T15:05:46;99257.19;;;-2.31;72.63
74973;BME280;63529;56.320;43.990;2022-12-18T15:08:35;99258.19;;;-2.32;72.86